Main page
METAR-TAF:

METAR-TAF

Airports :

Cheyenne County Municipal Airport

St. Francis, Kansas, United States

latitude: 39-45-40N, longitude: 101-47-45W, elevation: 3411 ft

Current weather observation

The report was made 29 minutes ago, at 21:30 UTC
Wind 16 mph from the South/Southwest with gusts up to 22 mph
Temperature 55°F
Humidity 30%
Pressure 29.80 in. Hg
Visibility: 10 miles
Broken clouds at a height of 11000 ft

METAR: KSYF 162130Z AUTO 20014G19KT 10SM BKN110 13/M04 A2980 RMK AO2 T01291040 PWINO

Time: 15:59 (21:59 UTC)


TAF: missing

Weather observations and forecasts of more than 4000 airports (METAR and TAF reports).

The available stations are represented by yellow and red dots on the map.

Hover mouse over dot to see the name of the station.

Then click to see weather observations and forecasts.

To change the map : click on the green buttons with a black cross to zoom in, on the green button with a dash to zoom out, or on the green arrows for adjacent maps.


METAR-TAF: